Time;durP1;ratioP1;P1;durP2;ratioP2;P2;SDS_P1;SDS_P2;PMS_P1;PMS_P2;Temp;Humidity;BMP_temperature;BMP_pressure;BME280_temperature;BME280_humidity;BME280_pressure;Samples;Min_cycle;Max_cycle;Signal;HPM_P1;HPM_P2
2023/04/28 00:02:03;;;;;;;15.32;10.30;;;;;;;4.99;75.72;101410.94;4916573;29;20200;-73
2023/04/28 00:04:33;;;;;;;15.77;11.90;;;;;;;4.78;75.09;101407.72;4915588;29;20285;-70
2023/04/28 00:07:05;;;;;;;16.98;10.85;;;;;;;4.71;74.82;101403.94;4911489;29;20197;-74
2023/04/28 00:09:36;;;;;;;15.55;9.13;;;;;;;4.86;76.84;101399.75;4921727;29;21032;-72
2023/04/28 00:12:05;;;;;;;15.48;9.68;;;;;;;4.84;77.60;101400.91;4921138;29;20207;-73
2023/04/28 00:14:34;;;;;;;16.15;9.98;;;;;;;4.72;77.25;101398.44;4923974;29;20216;-73
2023/04/28 00:17:04;;;;;;;16.90;11.15;;;;;;;4.71;77.81;101396.75;4920778;29;20286;-70
2023/04/28 00:19:33;;;;;;;22.52;10.02;;;;;;;4.58;78.29;101395.44;4912281;29;20204;-70
2023/04/28 00:22:03;;;;;;;16.58;9.50;;;;;;;4.65;78.96;101397.34;4918890;29;20200;-72
2023/04/28 00:24:35;;;;;;;19.63;9.23;;;;;;;4.79;78.99;101399.50;4919611;29;20223;-72
2023/04/28 00:27:06;;;;;;;16.70;10.40;;;;;;;4.77;77.72;101400.66;4922161;29;20243;-69
2023/04/28 00:29:35;;;;;;;16.73;10.15;;;;;;;4.55;77.58;101401.94;4917411;29;20193;-70
2023/04/28 00:32:04;;;;;;;13.75;9.43;;;;;;;4.81;74.71;101405.56;4923586;29;20215;-69
2023/04/28 00:34:36;;;;;;;14.57;9.10;;;;;;;4.90;73.12;101401.13;4923183;29;20592;-69
2023/04/28 00:37:05;;;;;;;21.70;10.25;;;;;;;4.88;75.47;101396.91;4920186;29;20201;-69
2023/04/28 00:39:34;;;;;;;15.63;9.82;;;;;;;4.82;75.21;101399.22;4926808;29;20195;-72
2023/04/28 00:42:05;;;;;;;12.88;9.20;;;;;;;4.73;76.08;101400.13;4923022;29;20278;-73
2023/04/28 00:44:34;;;;;;;11.27;8.02;;;;;;;4.68;75.65;101393.53;4920171;29;20228;-72
2023/04/28 00:47:04;;;;;;;16.02;10.35;;;;;;;4.68;75.53;101391.72;4921700;29;20274;-71
2023/04/28 00:49:34;;;;;;;10.80;6.55;;;;;;;4.68;74.00;101391.72;4918137;29;20204;-70
2023/04/28 00:52:05;;;;;;;15.77;9.73;;;;;;;4.69;74.45;101376.47;4918642;29;20208;-71
2023/04/28 00:54:35;;;;;;;10.50;7.32;;;;;;;4.61;75.31;101377.22;4916612;29;20223;-71
2023/04/28 00:57:07;;;;;;;13.32;8.60;;;;;;;4.75;74.83;101382.03;4917839;29;20200;-72
2023/04/28 00:59:37;;;;;;;9.82;7.25;;;;;;;4.70;73.59;101384.34;4920807;29;20194;-72
2023/04/28 01:02:07;;;;;;;7.15;6.15;;;;;;;4.72;73.42;101377.00;4911632;29;20231;-72
2023/04/28 01:04:36;;;;;;;12.32;6.90;;;;;;;4.75;71.69;101382.03;4920439;29;20216;-71
2023/04/28 01:07:06;;;;;;;10.88;7.10;;;;;;;4.76;72.25;101375.69;4899680;29;20198;-72
2023/04/28 01:09:35;;;;;;;12.15;7.80;;;;;;;4.79;72.97;101378.06;4916384;29;20700;-71
2023/04/28 01:12:07;;;;;;;7.30;5.72;;;;;;;4.71;72.90;101371.78;4899145;29;20192;-72
2023/04/28 01:14:43;;;;;;;12.10;7.20;;;;;;;4.66;72.51;101372.22;4900851;29;20224;-72
2023/04/28 01:17:12;;;;;;;11.02;7.93;;;;;;;4.68;73.69;101370.25;4918194;29;20196;-72
2023/04/28 01:19:42;;;;;;;14.57;8.68;;;;;;;4.65;72.39;101370.53;4908780;29;20200;-75
2023/04/28 01:22:14;;;;;;;11.80;6.90;;;;;;;4.71;72.10;101364.56;4912694;29;20234;-71
2023/04/28 01:24:46;;;;;;;12.25;7.32;;;;;;;4.90;74.58;101362.72;4911531;29;20251;-71
2023/04/28 01:27:15;;;;;;;8.95;7.40;;;;;;;4.72;73.67;101358.22;4900940;29;20197;-72
2023/04/28 01:29:45;;;;;;;9.55;7.60;;;;;;;4.73;74.60;101354.56;4919489;29;20212;-71
2023/04/28 01:32:14;;;;;;;13.82;8.00;;;;;;;4.76;73.13;101356.91;4915224;29;20221;-70
2023/04/28 01:34:44;;;;;;;15.63;8.85;;;;;;;4.78;73.58;101352.25;4917315;29;20232;-70
2023/04/28 01:37:13;;;;;;;14.18;7.05;;;;;;;4.75;72.88;101355.22;4919973;29;20203;-70
2023/04/28 01:39:42;;;;;;;14.25;7.05;;;;;;;4.75;71.57;101349.88;4925067;29;20220;-69
2023/04/28 01:42:13;;;;;;;13.02;7.07;;;;;;;4.75;71.62;101351.69;4912274;29;20208;-71
2023/04/28 01:45:07;;;;;;;11.98;8.52;;;;;;;4.77;72.18;101352.41;4920942;29;20219;-71
2023/04/28 01:47:37;;;;;;;15.27;7.10;;;;;;;4.77;72.20;101350.56;4920374;29;20210;-71
2023/04/28 01:50:07;;;;;;;17.42;9.50;;;;;;;4.68;72.58;101343.44;4927111;29;20568;-71
2023/04/28 01:52:37;;;;;;;13.50;7.88;;;;;;;4.64;73.28;101350.13;4910879;29;20546;-70
2023/04/28 01:58:50;;;;;;;14.57;8.25;;;;;;;4.51;74.57;101341.59;4922607;29;20288;-71
2023/04/28 02:01:19;;;;;;;13.55;9.23;;;;;;;4.52;75.26;101332.56;4926173;29;20279;-70
2023/04/28 02:03:49;;;;;;;10.95;8.10;;;;;;;4.47;75.08;101334.84;4909232;29;20279;-69
2023/04/28 02:06:19;;;;;;;22.30;9.73;;;;;;;4.52;75.49;101332.56;4907782;29;20283;-70
2023/04/28 02:08:48;;;;;;;10.88;9.48;;;;;;;4.46;75.34;101337.66;4916160;29;20660;-70
2023/04/28 02:11:17;;;;;;;13.10;9.38;;;;;;;4.37;76.29;101336.75;4917568;29;20227;-70
2023/04/28 02:13:47;;;;;;;21.58;10.10;;;;;;;4.30;76.38;101338.38;4905839;29;20208;-70
2023/04/28 02:16:18;;;;;;;9.75;7.00;;;;;;;4.38;75.98;101336.59;4910699;29;20667;-69
2023/04/28 02:18:47;;;;;;;10.35;7.68;;;;;;;4.34;75.54;101345.09;4904058;29;20211;-71
2023/04/28 02:21:16;;;;;;;12.65;8.25;;;;;;;4.35;75.48;101339.59;4910624;29;20196;-71
2023/04/28 02:23:46;;;;;;;11.88;9.38;;;;;;;4.40;75.88;101340.97;4903776;29;20224;-72
2023/04/28 02:26:15;;;;;;;10.93;7.40;;;;;;;4.26;75.98;101337.00;4912465;29;20212;-73
2023/04/28 02:28:45;;;;;;;14.75;8.15;;;;;;;4.17;76.27;101341.38;4915787;29;20207;-72
2023/04/28 02:31:14;;;;;;;10.23;7.97;;;;;;;4.23;76.69;101334.59;4914523;29;20208;-71
2023/04/28 02:33:46;;;;;;;13.98;8.05;;;;;;;4.10;77.07;101326.06;4911750;29;20259;-72
2023/04/28 02:36:15;;;;;;;12.82;8.35;;;;;;;4.11;77.10;101327.78;4911002;29;20189;-69
2023/04/28 02:38:44;;;;;;;10.43;8.52;;;;;;;4.08;77.77;101330.72;4907690;29;20204;-72
2023/04/28 02:41:14;;;;;;;11.68;6.72;;;;;;;4.15;77.89;101324.63;4899562;29;20684;-70
2023/04/28 02:43:43;;;;;;;14.25;7.70;;;;;;;4.15;76.92;101334.50;4903570;29;20224;-70
2023/04/28 02:46:13;;;;;;;11.23;6.93;;;;;;;4.16;76.71;101322.81;4911566;29;20314;-71
2023/04/28 02:48:44;;;;;;;17.95;9.23;;;;;;;4.14;76.96;101322.09;4894731;29;20275;-71
2023/04/28 02:51:14;;;;;;;11.30;7.45;;;;;;;4.16;76.77;101322.81;4914242;29;20187;-70
2023/04/28 02:53:43;;;;;;;12.85;7.78;;;;;;;4.12;76.64;101318.72;4915065;29;20224;-70
2023/04/28 02:56:12;;;;;;;10.55;7.82;;;;;;;4.09;76.68;101319.88;4915661;29;20195;-73
2023/04/28 02:58:42;;;;;;;16.15;8.52;;;;;;;4.11;76.63;101317.06;4897830;29;20203;-71
2023/04/28 03:01:11;;;;;;;10.68;7.00;;;;;;;4.23;76.25;101321.19;4905403;29;20238;-69
2023/04/28 03:03:40;;;;;;;12.98;8.13;;;;;;;4.16;76.30;101315.63;4897958;29;20693;-69
2023/04/28 03:06:11;;;;;;;10.05;5.80;;;;;;;4.22;76.19;101315.00;4911828;29;20292;-70
2023/04/28 03:08:41;;;;;;;11.55;7.38;;;;;;;4.26;75.60;101315.56;4915576;29;21466;-71
2023/04/28 03:11:11;;;;;;;9.27;5.30;;;;;;;4.35;75.51;101306.59;4918120;29;20199;-72
2023/04/28 03:13:40;;;;;;;14.05;6.50;;;;;;;4.38;75.24;101308.97;4906195;29;20327;-70
2023/04/28 03:16:10;;;;;;;10.77;7.38;;;;;;;4.41;75.09;101313.16;4922826;29;20196;-71
2023/04/28 03:18:39;;;;;;;8.75;6.15;;;;;;;4.33;75.47;101303.22;4911904;29;20207;-70
2023/04/28 03:21:12;;;;;;;9.43;6.50;;;;;;;4.43;75.26;101309.34;4921311;29;20260;-69
2023/04/28 03:23:42;;;;;;;8.68;5.90;;;;;;;4.40;75.40;101311.50;4905308;29;20231;-71
2023/04/28 03:26:11;;;;;;;12.75;6.75;;;;;;;4.43;75.15;101305.81;4899716;29;20224;-72
2023/04/28 03:28:40;;;;;;;7.07;5.63;;;;;;;4.49;74.89;101305.22;4909685;29;20216;-71
2023/04/28 03:31:10;;;;;;;15.35;7.80;;;;;;;4.47;75.13;101308.06;4917779;29;20206;-70
2023/04/28 03:33:39;;;;;;;5.60;5.05;;;;;;;4.56;74.26;101295.56;4906818;29;20461;-72
2023/04/28 03:36:09;;;;;;;9.93;5.82;;;;;;;4.76;73.41;101303.28;4899057;29;20305;-71
2023/04/28 03:38:40;;;;;;;8.50;5.50;;;;;;;4.79;73.39;101297.63;4902037;29;20203;-72
2023/04/28 03:41:09;;;;;;;15.07;5.53;;;;;;;4.87;72.63;101296.00;4915436;29;20187;-70
2023/04/28 03:44:07;;;;;;;7.03;5.18;;;;;;;5.00;72.24;101296.44;4914576;29;20225;-72
2023/04/28 03:46:47;;;;;;;6.35;4.60;;;;;;;4.99;72.00;101297.44;4911180;29;20215;-71
2023/04/28 03:49:16;;;;;;;9.57;4.43;;;;;;;5.16;70.91;101294.72;4902819;29;20294;-69
2023/04/28 03:51:46;;;;;;;8.38;5.43;;;;;;;5.17;70.71;101292.88;4909635;29;20252;-69
2023/04/28 03:54:18;;;;;;;9.40;5.45;;;;;;;5.21;70.45;101289.72;4906153;29;20852;-70
2023/04/28 03:56:48;;;;;;;13.05;5.65;;;;;;;5.29;70.13;101291.59;4916703;29;20486;-71
2023/04/28 03:59:17;;;;;;;6.35;5.18;;;;;;;5.30;69.90;101285.25;4895594;29;20197;-74
2023/04/28 04:01:47;;;;;;;8.88;6.20;;;;;;;5.59;69.06;101285.75;4911004;29;20190;-69
2023/04/28 04:04:16;;;;;;;9.95;4.82;;;;;;;5.73;68.25;101280.75;4910538;29;20215;-71
2023/04/28 04:06:46;;;;;;;8.52;4.38;;;;;;;5.74;67.87;101283.31;4908858;29;20252;-70
2023/04/28 04:09:17;;;;;;;10.45;5.82;;;;;;;5.97;67.29;101275.53;4900771;29;20195;-72
2023/04/28 04:11:46;;;;;;;12.20;4.72;;;;;;;6.06;66.07;101282.59;4904784;29;20215;-70
2023/04/28 04:14:15;;;;;;;15.18;5.22;;;;;;;5.99;66.49;101282.44;4914320;29;20226;-72
2023/04/28 04:16:46;;;;;;;7.85;5.78;;;;;;;6.08;66.24;101280.59;4901046;29;20204;-73
2023/04/28 04:19:15;;;;;;;10.45;5.43;;;;;;;6.11;66.46;101285.63;4914785;29;20196;-71
2023/04/28 04:21:45;;;;;;;12.48;5.30;;;;;;;6.20;65.86;101273.91;4901205;29;20739;-69
2023/04/28 04:24:14;;;;;;;8.02;5.20;;;;;;;6.56;65.18;101277.16;4909674;29;20298;-71
2023/04/28 04:26:45;;;;;;;7.57;4.57;;;;;;;7.78;61.21;101267.88;4912061;29;20214;-70
2023/04/28 04:29:27;;;;;;;8.65;5.55;;;;;;;9.16;56.84;101275.00;4898976;29;20201;-71
2023/04/28 04:31:56;;;;;;;5.88;5.25;;;;;;;10.27;52.96;101273.03;4907613;29;20299;-69
2023/04/28 04:34:25;;;;;;;6.68;4.40;;;;;;;10.60;51.39;101270.66;4911775;29;20222;-74
2023/04/28 04:36:54;;;;;;;7.47;4.88;;;;;;;11.15;50.28;101269.06;4910231;29;20195;-72
2023/04/28 04:39:24;;;;;;;7.22;5.32;;;;;;;11.19;49.38;101260.34;4900168;29;20203;-72
2023/04/28 04:41:55;;;;;;;10.68;6.07;;;;;;;11.20;49.35;101259.31;4892813;29;20565;-72
2023/04/28 04:44:53;;;;;;;7.25;5.05;;;;;;;11.49;48.25;101255.56;4894876;29;20314;-71
2023/04/28 04:47:29;;;;;;;6.70;4.30;;;;;;;12.23;46.39;101253.00;4910886;29;20222;-70
2023/04/28 04:49:58;;;;;;;6.45;4.30;;;;;;;11.94;46.31;101247.88;4908020;29;20216;-72
2023/04/28 04:52:28;;;;;;;7.43;4.90;;;;;;;11.28;47.32;101255.59;4894196;29;20236;-71
2023/04/28 04:54:57;;;;;;;6.47;5.05;;;;;;;11.37;47.69;101257.16;4911476;29;20468;-71
2023/04/28 04:57:28;;;;;;;9.90;4.40;;;;;;;12.17;46.05;101254.66;4895449;29;20573;-72
2023/04/28 05:00:06;;;;;;;9.20;4.67;;;;;;;12.32;44.98;101246.34;4897485;29;20431;-70
2023/04/28 05:02:36;;;;;;;6.87;4.47;;;;;;;12.36;45.11;101242.16;4911903;29;20426;-72
2023/04/28 05:05:07;;;;;;;6.53;4.60;;;;;;;12.75;44.44;101244.09;4909834;29;20479;-72
2023/04/28 05:08:10;;;;;;;6.03;5.43;;;;;;;14.09;42.12;101253.47;4907331;29;20458;-71
2023/04/28 05:10:40;;;;;;;5.43;4.93;;;;;;;14.35;41.12;101234.31;4912302;29;20445;-72
2023/04/28 05:13:11;;;;;;;6.30;4.40;;;;;;;14.32;40.88;101242.91;4896261;29;20457;-71
2023/04/28 05:15:40;;;;;;;8.60;5.00;;;;;;;14.21;40.89;101237.31;4906790;29;20564;-69
2023/04/28 05:18:28;;;;;;;6.97;5.10;;;;;;;12.20;44.23;101231.69;4909321;29;20397;-73
2023/04/28 05:20:57;;;;;;;6.30;4.63;;;;;;;10.59;47.76;101241.94;4896653;29;20456;-70
2023/04/28 05:23:26;;;;;;;6.33;5.00;;;;;;;9.56;50.87;101239.47;4911703;29;20457;-71
2023/04/28 05:25:56;;;;;;;6.80;5.20;;;;;;;8.94;52.47;101243.53;4895544;29;20490;-74
2023/04/28 05:28:27;;;;;;;8.65;4.57;;;;;;;8.60;53.36;101241.28;4897626;29;20207;-73
2023/04/28 05:30:56;;;;;;;9.15;4.78;;;;;;;8.35;54.27;101245.16;4907207;29;20213;-71
2023/04/28 05:33:26;;;;;;;9.43;4.90;;;;;;;8.25;55.27;101230.03;4893688;29;20310;-70
2023/04/28 05:35:56;;;;;;;14.00;4.53;;;;;;;8.33;54.91;101231.88;4894957;29;20207;-72
2023/04/28 05:38:25;;;;;;;7.75;4.25;;;;;;;8.37;55.00;101227.81;4896994;29;20195;-69
2023/04/28 05:40:55;;;;;;;7.60;4.20;;;;;;;8.54;55.10;101218.56;4896237;29;20228;-70
2023/04/28 05:43:26;;;;;;;7.75;4.32;;;;;;;8.55;55.37;101219.41;4897887;29;20219;-69
2023/04/28 05:45:55;;;;;;;11.02;5.55;;;;;;;8.69;54.33;101224.00;4898823;29;20444;-71
2023/04/28 05:48:25;;;;;;;9.18;5.50;;;;;;;8.77;54.47;101215.81;4900022;29;20298;-71
2023/04/28 05:50:55;;;;;;;8.98;6.65;;;;;;;8.87;54.25;101221.81;4912559;29;20201;-71
2023/04/28 05:53:24;;;;;;;8.38;6.07;;;;;;;9.03;53.56;101218.13;4906103;29;20222;-69
2023/04/28 05:55:54;;;;;;;7.63;4.65;;;;;;;9.26;53.10;101212.63;4894536;29;20288;-70
2023/04/28 05:58:23;;;;;;;9.77;4.35;;;;;;;9.13;52.95;101213.28;4896307;29;20201;-70
2023/04/28 06:00:53;;;;;;;6.18;4.32;;;;;;;9.22;52.75;101203.22;4909157;29;20638;-69
2023/04/28 06:03:23;;;;;;;6.45;3.95;;;;;;;9.27;52.45;101206.22;4900024;29;20226;-73
2023/04/28 06:05:53;;;;;;;5.43;4.88;;;;;;;9.43;51.98;101198.78;4897994;29;20546;-72
2023/04/28 06:08:22;;;;;;;7.15;4.45;;;;;;;9.63;51.55;101198.19;4912564;29;20255;-72
2023/04/28 06:10:51;;;;;;;10.18;4.53;;;;;;;9.74;51.26;101193.13;4911619;29;20739;-71
2023/04/28 06:13:21;;;;;;;5.95;5.35;;;;;;;10.03;50.70;101201.16;4893569;29;20584;-70
2023/04/28 06:15:52;;;;;;;9.55;4.68;;;;;;;10.24;49.71;101194.13;4912521;29;20312;-70
2023/04/28 06:18:22;;;;;;;6.20;4.60;;;;;;;10.34;49.60;101195.50;4914240;29;20277;-69
2023/04/28 06:20:51;;;;;;;10.68;6.30;;;;;;;10.20;49.52;101192.84;4905751;29;20204;-72
2023/04/28 06:23:21;;;;;;;9.40;4.78;;;;;;;10.17;49.30;101193.22;4921172;29;20317;-69
2023/04/28 06:25:51;;;;;;;7.70;4.88;;;;;;;10.31;48.85;101190.44;4911037;29;20203;-73
2023/04/28 06:28:20;;;;;;;9.82;5.00;;;;;;;10.31;48.65;101192.34;4916743;29;20235;-71
2023/04/28 06:30:52;;;;;;;10.30;5.20;;;;;;;10.27;48.53;101191.03;4912513;29;20199;-73
2023/04/28 06:33:22;;;;;;;8.20;4.60;;;;;;;10.51;48.01;101176.28;4911094;29;20837;-70
2023/04/28 06:35:51;;;;;;;12.43;4.60;;;;;;;10.54;47.99;101182.16;4910668;29;20525;-70
2023/04/28 06:38:20;;;;;;;7.47;4.20;;;;;;;10.92;46.95;101181.81;4915152;29;20802;-72
2023/04/28 06:40:49;;;;;;;10.70;6.03;;;;;;;10.89;46.85;101175.75;4899914;29;20545;-72
2023/04/28 06:43:18;;;;;;;9.37;5.80;;;;;;;10.90;46.15;101177.44;4912390;29;20447;-71
2023/04/28 06:45:59;;;;;;;7.57;5.13;;;;;;;11.03;46.41;101174.00;4911682;29;20425;-71
2023/04/28 06:48:29;;;;;;;8.30;4.80;;;;;;;11.18;45.54;101161.16;4912991;29;21000;-71
2023/04/28 06:50:58;;;;;;;6.97;5.20;;;;;;;11.21;45.57;101171.59;4913387;29;20419;-72
2023/04/28 06:53:27;;;;;;;11.13;7.07;;;;;;;11.18;45.20;101165.75;4910363;29;20485;-70
2023/04/28 06:55:56;;;;;;;5.37;4.00;;;;;;;11.16;45.55;101167.81;4909341;29;20793;-72
2023/04/28 06:58:25;;;;;;;5.20;4.03;;;;;;;11.32;45.08;101162.09;4912838;29;20562;-71
2023/04/28 07:00:54;;;;;;;11.30;4.20;;;;;;;11.56;44.84;101158.84;4900640;29;20460;-72
2023/04/28 07:03:26;;;;;;;7.00;4.53;;;;;;;11.50;43.83;101154.25;4913065;29;20442;-71
2023/04/28 07:05:55;;;;;;;4.23;3.83;;;;;;;11.44;44.10;101151.50;4911923;29;20484;-70
2023/04/28 07:08:24;;;;;;;6.97;3.60;;;;;;;11.49;43.48;101152.56;4914674;29;20509;-72
2023/04/28 07:10:53;;;;;;;13.30;4.13;;;;;;;11.26;43.39;101147.47;4915186;29;20808;-73
2023/04/28 07:13:22;;;;;;;9.80;4.23;;;;;;;11.64;43.34;101152.41;4915184;29;20456;-73
2023/04/28 07:15:51;;;;;;;3.67;2.97;;;;;;;11.72;41.87;101153.09;4910979;29;20803;-72
2023/04/28 07:18:21;;;;;;;3.33;3.03;;;;;;;11.75;41.88;101141.88;4913622;29;20476;-73
2023/04/28 07:20:51;;;;;;;12.00;3.90;;;;;;;11.91;41.97;101143.34;4912453;29;20440;-71
2023/04/28 07:23:20;;;;;;;5.90;3.90;;;;;;;11.87;42.53;101139.38;4912840;29;20571;-72
2023/04/28 07:25:50;;;;;;;5.20;3.90;;;;;;;11.85;42.67;101130.63;4909349;29;20478;-71
2023/04/28 07:28:19;;;;;;;7.93;3.50;;;;;;;11.77;43.08;101128.91;4912909;29;20542;-73
2023/04/28 07:30:48;;;;;;;4.00;3.60;;;;;;;12.03;42.50;101138.16;4913159;29;20988;-71
2023/04/28 07:33:17;;;;;;;6.20;3.73;;;;;;;11.99;42.59;101132.31;4912734;29;20981;-73
2023/04/28 07:35:47;;;;;;;10.83;4.40;;;;;;;12.07;42.90;101128.56;4910687;29;20955;-72
2023/04/28 07:38:19;;;;;;;8.27;4.60;;;;;;;12.21;42.45;101124.84;4913013;29;20493;-72
2023/04/28 07:40:49;;;;;;;5.70;4.63;;;;;;;12.25;42.80;101115.22;4909768;29;20959;-72
2023/04/28 07:43:23;;;;;;;6.43;4.60;;;;;;;12.38;42.44;101120.69;4914137;29;20484;-70
2023/04/28 07:45:52;;;;;;;6.83;4.20;;;;;;;12.39;42.30;101124.25;4908202;29;20471;-69
2023/04/28 07:48:22;;;;;;;6.33;3.97;;;;;;;12.26;42.59;101106.06;4911072;29;20427;-70
2023/04/28 07:50:51;;;;;;;9.00;4.30;;;;;;;12.25;42.37;101109.00;4911626;29;20448;-71
2023/04/28 07:53:21;;;;;;;8.30;4.63;;;;;;;12.36;42.69;101111.06;4909571;29;20456;-74
2023/04/28 07:55:50;;;;;;;6.33;4.40;;;;;;;12.44;42.64;101108.97;4913316;29;21012;-73
2023/04/28 07:58:19;;;;;;;12.40;4.37;;;;;;;12.54;42.41;101109.38;4915949;29;20452;-73
2023/04/28 08:00:49;;;;;;;10.27;4.87;;;;;;;12.57;42.31;101103.56;4912846;29;20421;-73
2023/04/28 08:03:20;;;;;;;7.93;3.80;;;;;;;12.53;42.14;101102.31;4913322;29;20466;-71
2023/04/28 08:05:49;;;;;;;5.10;4.17;;;;;;;12.61;42.02;101099.38;4913291;29;20413;-73
2023/04/28 08:08:20;;;;;;;11.73;4.07;;;;;;;12.82;41.79;101097.47;4913564;29;20869;-72
2023/04/28 08:10:49;;;;;;;6.40;4.27;;;;;;;12.91;41.42;101101.63;4911531;29;20418;-69
2023/04/28 08:13:18;;;;;;;5.63;4.90;;;;;;;12.87;41.29;101093.06;4908265;29;20504;-72
2023/04/28 08:15:48;;;;;;;7.53;4.53;;;;;;;13.04;41.01;101094.28;4909231;29;21007;-72
2023/04/28 08:18:18;;;;;;;5.80;5.20;;;;;;;13.06;41.25;101092.19;4912950;29;20503;-69
2023/04/28 08:20:47;;;;;;;7.90;3.87;;;;;;;13.04;41.03;101088.84;4909351;29;20774;-72
2023/04/28 08:23:16;;;;;;;4.73;3.83;;;;;;;13.00;41.02;101087.59;4910788;29;21046;-69
2023/04/28 08:25:47;;;;;;;6.97;5.00;;;;;;;13.17;40.99;101095.31;4912447;29;20762;-71
2023/04/28 08:28:16;;;;;;;8.30;4.90;;;;;;;13.26;40.64;101092.16;4913592;29;20413;-71
2023/04/28 08:30:45;;;;;;;4.83;4.13;;;;;;;13.34;40.68;101089.19;4910815;29;20465;-71
2023/04/28 08:33:14;;;;;;;5.10;3.97;;;;;;;13.60;40.14;101081.97;4908925;29;20525;-72
2023/04/28 08:35:43;;;;;;;7.20;4.30;;;;;;;13.68;39.66;101085.25;4908890;29;20409;-71
2023/04/28 08:38:14;;;;;;;6.47;3.90;;;;;;;13.51;39.76;101083.28;4907813;29;20469;-70
2023/04/28 08:40:45;;;;;;;6.67;4.90;;;;;;;13.72;39.39;101080.19;4903745;29;20434;-72
2023/04/28 08:43:14;;;;;;;6.27;4.03;;;;;;;13.78;39.61;101080.19;4908869;29;20524;-71
2023/04/28 08:45:44;;;;;;;6.37;4.00;;;;;;;14.02;39.27;101081.28;4912112;29;20453;-70
2023/04/28 08:48:22;;;;;;;5.20;3.97;;;;;;;13.95;39.45;101080.47;4909281;29;20566;-73
2023/04/28 08:50:53;;;;;;;10.90;4.17;;;;;;;14.19;39.00;101076.94;4912879;29;20561;-70
2023/04/28 08:53:26;;;;;;;8.60;5.27;;;;;;;13.91;39.46;101071.09;4909528;29;20447;-71
2023/04/28 08:55:59;;;;;;;8.03;4.47;;;;;;;14.25;38.79;101061.63;4906963;29;20435;-72
2023/04/28 08:58:28;;;;;;;13.10;4.40;;;;;;;14.28;38.66;101064.72;4910184;29;20499;-73
2023/04/28 09:00:57;;;;;;;7.00;4.93;;;;;;;14.22;38.68;101059.34;4912434;29;20901;-75
2023/04/28 09:03:27;;;;;;;8.40;4.63;;;;;;;14.33;38.94;101053.16;4914691;29;20469;-71
2023/04/28 09:05:57;;;;;;;9.30;5.33;;;;;;;14.64;38.50;101046.84;4910881;29;20442;-72
2023/04/28 09:08:27;;;;;;;8.37;4.90;;;;;;;14.62;38.16;101046.25;4911636;29;20533;-72
2023/04/28 09:11:12;;;;;;;8.03;4.03;;;;;;;14.36;38.85;101044.59;4898252;29;20976;-70
2023/04/28 09:13:42;;;;;;;7.87;4.50;;;;;;;14.40;39.22;101031.38;4914582;29;20512;-75
2023/04/28 09:16:11;;;;;;;7.30;4.47;;;;;;;14.27;39.30;101033.13;4910642;29;20817;-69
2023/04/28 09:18:55;;;;;;;10.23;5.50;;;;;;;14.52;39.03;101021.41;4916675;29;20436;-72
2023/04/28 09:21:24;;;;;;;7.90;4.60;;;;;;;14.85;38.52;101021.88;4917439;29;20412;-71
2023/04/28 09:23:53;;;;;;;10.93;4.83;;;;;;;15.15;38.15;101024.69;4911338;29;20873;-73
2023/04/28 09:26:24;;;;;;;7.93;4.17;;;;;;;15.18;37.53;101014.13;4912216;29;20512;-68
2023/04/28 09:29:11;;;;;;;8.37;5.23;;;;;;;14.78;37.90;101012.94;4916425;29;20511;-70
2023/04/28 09:31:42;;;;;;;15.03;5.50;;;;;;;14.83;38.11;101007.66;4913657;29;20547;-71
2023/04/28 09:34:12;;;;;;;9.40;4.33;;;;;;;14.96;38.46;101017.56;4912401;29;20561;-71
2023/04/28 09:36:41;;;;;;;8.30;4.67;;;;;;;15.25;37.60;101010.50;4909273;29;20890;-72
2023/04/28 09:39:10;;;;;;;8.60;5.20;;;;;;;15.36;37.42;100998.78;4910950;29;20480;-71
2023/04/28 09:41:44;;;;;;;6.07;4.17;;;;;;;15.29;37.33;100993.44;4911112;29;20440;-70
2023/04/28 09:44:15;;;;;;;6.27;4.43;;;;;;;15.60;37.28;100997.84;4910934;29;20459;-70
2023/04/28 09:46:45;;;;;;;11.33;5.47;;;;;;;15.47;36.98;100992.56;4910776;29;20509;-71
2023/04/28 09:49:15;;;;;;;6.67;4.87;;;;;;;15.50;37.19;100992.09;4908400;29;20539;-72
2023/04/28 09:51:44;;;;;;;7.67;4.90;;;;;;;15.43;37.49;101000.38;4911730;29;20431;-70
2023/04/28 09:54:15;;;;;;;7.60;5.63;;;;;;;15.52;37.02;100992.72;4907705;29;20462;-69
2023/04/28 09:56:59;;;;;;;6.10;4.40;;;;;;;15.58;36.94;100984.47;4912863;29;20465;-70
2023/04/28 09:59:48;;;;;;;9.37;4.90;;;;;;;15.74;37.30;100987.56;4898270;29;20469;-72
2023/04/28 10:02:19;;;;;;;10.20;5.80;;;;;;;15.78;37.05;100991.50;4916397;29;20443;-69
2023/04/28 10:05:09;;;;;;;9.30;5.23;;;;;;;15.70;36.94;100989.94;4912995;29;20822;-72
2023/04/28 10:07:40;;;;;;;9.10;5.17;;;;;;;15.72;36.79;100985.09;4912829;29;20431;-71
2023/04/28 10:10:10;;;;;;;9.27;5.00;;;;;;;15.60;37.10;100981.47;4915860;29;20573;-71
2023/04/28 10:12:42;;;;;;;12.53;5.50;;;;;;;15.48;37.82;100980.59;4915020;29;20474;-68
2023/04/28 10:15:13;;;;;;;23.07;6.10;;;;;;;15.75;37.28;100970.97;4915182;29;20457;-72
2023/04/28 10:17:42;;;;;;;9.80;5.20;;;;;;;15.57;37.35;100965.59;4900288;29;20478;-72
2023/04/28 10:20:16;;;;;;;8.10;5.10;;;;;;;16.09;36.64;100964.72;4916376;29;20406;-71
2023/04/28 10:22:59;;;;;;;17.87;6.53;;;;;;;16.00;36.80;100966.16;4912565;29;20927;-70
2023/04/28 10:25:31;;;;;;;9.70;6.60;;;;;;;16.39;36.65;100958.31;4915291;29;20785;-70
2023/04/28 10:28:05;;;;;;;10.07;5.80;;;;;;;16.64;36.07;100972.56;4910673;29;20505;-71
2023/04/28 10:30:36;;;;;;;10.60;6.03;;;;;;;16.60;36.36;100959.63;4914271;29;20479;-69
2023/04/28 10:33:25;;;;;;;8.00;6.07;;;;;;;16.76;36.02;100956.97;4914038;29;20476;-71
2023/04/28 10:35:55;;;;;;;8.63;5.50;;;;;;;16.90;35.61;100947.41;4911134;29;20495;-70
2023/04/28 10:38:24;;;;;;;10.20;5.33;;;;;;;16.77;35.86;100947.69;4914024;29;20508;-72
2023/04/28 10:40:54;;;;;;;11.50;6.30;;;;;;;16.52;36.03;100938.94;4911329;29;20925;-71
2023/04/28 10:43:41;;;;;;;8.40;5.53;;;;;;;16.35;36.62;100938.00;4904992;29;20482;-71
2023/04/28 10:46:10;;;;;;;7.30;5.90;;;;;;;16.90;36.14;100933.75;4914152;29;20472;-70
2023/04/28 10:49:07;;;;;;;7.23;5.53;;;;;;;17.30;35.08;100935.63;4914190;29;20766;-71
2023/04/28 10:51:36;;;;;;;8.50;5.90;;;;;;;16.93;35.63;100926.97;4906888;29;20480;-71
2023/04/28 10:54:19;;;;;;;8.03;5.93;;;;;;;17.38;35.02;100924.25;4912169;29;20448;-70
2023/04/28 10:57:20;;;;;;;7.53;5.50;;;;;;;17.31;35.81;100927.19;4912800;29;20440;-71
2023/04/28 10:59:51;;;;;;;11.30;6.00;;;;;;;17.87;34.82;100921.84;4894565;29;20449;-71
2023/04/28 11:02:44;;;;;;;8.97;5.53;;;;;;;17.91;34.38;100923.03;4907803;29;20565;-71
2023/04/28 11:05:15;;;;;;;7.17;5.60;;;;;;;17.60;34.47;100918.94;4910050;29;20416;-70
2023/04/28 11:08:29;;;;;;;9.80;5.83;;;;;;;17.73;34.98;100905.75;4914951;29;20484;-72
2023/04/28 11:11:15;;;;;;;8.00;6.20;;;;;;;18.13;34.13;100908.31;4915131;29;20970;-71
2023/04/28 11:13:46;;;;;;;12.73;5.63;;;;;;;18.20;34.09;100905.41;4909779;29;20900;-72
2023/04/28 11:16:22;;;;;;;13.17;6.30;;;;;;;17.57;35.08;100909.28;4908630;29;20443;-70
2023/04/28 11:19:03;;;;;;;7.13;6.20;;;;;;;17.49;35.07;100904.22;4911645;29;20473;-73
2023/04/28 11:21:33;;;;;;;7.93;5.17;;;;;;;17.34;35.45;100912.16;4911634;29;20419;-72
2023/04/28 11:24:10;;;;;;;6.20;5.30;;;;;;;17.61;35.30;100902.28;4914508;29;20531;-71
2023/04/28 11:26:40;;;;;;;10.80;6.23;;;;;;;17.85;34.52;100902.13;4913849;29;20415;-73
2023/04/28 11:29:10;;;;;;;13.37;5.93;;;;;;;17.60;34.95;100906.09;4908736;29;20445;-71
2023/04/28 11:31:41;;;;;;;9.93;5.60;;;;;;;17.45;35.38;100903.06;4945107;23;20489;-81
2023/04/28 11:34:13;;;;;;;7.37;4.73;;;;;;;17.90;34.58;100903.03;4942142;29;21018;-81
2023/04/28 11:36:43;;;;;;;9.93;5.63;;;;;;;18.31;34.32;100895.38;4937063;29;20540;-82
2023/04/28 11:39:14;;;;;;;8.20;5.83;;;;;;;18.55;33.68;100894.94;4934818;29;20429;-81
2023/04/28 11:41:44;;;;;;;9.70;6.10;;;;;;;18.36;33.96;100896.28;4929959;29;20485;-82
2023/04/28 11:44:15;;;;;;;20.33;6.43;;;;;;;18.08;34.64;100896.44;4923114;29;20414;-81
2023/04/28 11:46:53;;;;;;;12.40;6.87;;;;;;;18.37;34.52;100884.25;4935491;29;20418;-83
2023/04/28 11:49:24;;;;;;;8.33;5.43;;;;;;;18.30;34.48;100888.28;4931496;29;20530;-82